createdAt,value
2023-10-10T00:01:48.326Z,100719.66
2023-10-10T00:04:20.692Z,100718.25
2023-10-10T00:06:53.206Z,100714.22
2023-10-10T00:09:27.618Z,100711.13
2023-10-10T00:11:59.473Z,100710.47
2023-10-10T00:14:31.260Z,100709.75
2023-10-10T00:17:03.153Z,100722.28
2023-10-10T00:19:45.329Z,100727.19
2023-10-10T00:22:19.019Z,100716.81
2023-10-10T00:24:50.782Z,100713.06
2023-10-10T00:27:25.045Z,100705.88
2023-10-10T00:29:56.862Z,100718.00
2023-10-10T00:32:30.728Z,100714.16
2023-10-10T00:35:03.941Z,100718.81
2023-10-10T00:37:36.434Z,100718.34
2023-10-10T00:40:12.160Z,100723.09
2023-10-10T00:42:43.981Z,100706.00
2023-10-10T00:45:16.022Z,100704.44
2023-10-10T00:47:49.210Z,100722.09
2023-10-10T00:50:26.211Z,100690.56
2023-10-10T00:52:58.334Z,100708.31
2023-10-10T00:55:34.906Z,100721.84
2023-10-10T00:58:09.147Z,100683.44
2023-10-10T01:00:47.669Z,100714.47
2023-10-10T01:03:22.968Z,100722.28
2023-10-10T01:05:55.503Z,100707.97
2023-10-10T01:08:32.734Z,100709.13
2023-10-10T01:11:06.769Z,100684.75
2023-10-10T01:13:41.515Z,100715.25
2023-10-10T01:16:13.486Z,100699.63
2023-10-10T01:18:58.884Z,100722.56
2023-10-10T01:21:32.374Z,100700.44
2023-10-10T01:24:13.171Z,100714.44
2023-10-10T01:26:48.837Z,100706.03
2023-10-10T01:29:28.574Z,100686.16
2023-10-10T01:32:00.726Z,100716.56
2023-10-10T01:34:32.700Z,100688.16
2023-10-10T01:37:09.174Z,100683.91
2023-10-10T01:40:19.260Z,100716.63
2023-10-10T01:42:55.710Z,100716.13
2023-10-10T01:45:31.278Z,100710.06
2023-10-10T01:48:09.906Z,100714.94
2023-10-10T01:50:42.244Z,100694.91
2023-10-10T01:53:14.066Z,100694.16
2023-10-10T01:55:48.943Z,100710.47
2023-10-10T01:58:21.546Z,100721.31
2023-10-10T02:00:55.948Z,100720.66
2023-10-10T02:03:29.445Z,100714.16
2023-10-10T02:06:01.758Z,100716.72
2023-10-10T02:08:36.393Z,100711.53
2023-10-10T02:11:10.108Z,100734.13
2023-10-10T02:13:46.037Z,100714.78
2023-10-10T02:16:24.939Z,100721.53
2023-10-10T02:19:00.598Z,100703.31
2023-10-10T02:21:44.512Z,100689.34
2023-10-10T02:24:45.433Z,100746.13
2023-10-10T02:27:21.549Z,100708.53
2023-10-10T02:29:54.886Z,100732.63
2023-10-10T02:32:30.918Z,100715.19
2023-10-10T02:35:28.340Z,100739.81
2023-10-10T02:38:05.179Z,100738.41
2023-10-10T02:40:44.141Z,100699.00
2023-10-10T02:43:34.886Z,100747.03
2023-10-10T02:46:07.272Z,100750.50
2023-10-10T02:48:43.541Z,100720.25
2023-10-10T02:51:17.304Z,100727.38
2023-10-10T02:53:49.264Z,100757.63
2023-10-10T02:56:21.500Z,100746.72
2023-10-10T02:58:55.767Z,100737.56
2023-10-10T03:01:46.027Z,100759.50
2023-10-10T03:04:19.094Z,100738.44
2023-10-10T03:06:51.033Z,100743.41
2023-10-10T03:09:43.080Z,100748.53
2023-10-10T03:12:18.991Z,100736.28
2023-10-10T03:14:54.685Z,100745.72
2023-10-10T03:17:45.689Z,100742.44
2023-10-10T03:20:35.894Z,100750.72
2023-10-10T03:23:14.113Z,100741.31
2023-10-10T03:25:56.051Z,100748.91
2023-10-10T03:28:27.933Z,100730.06
2023-10-10T03:31:24.380Z,100756.78
2023-10-10T03:34:05.082Z,100748.66
2023-10-10T03:36:46.535Z,100750.22
2023-10-10T03:39:25.488Z,100759.13
2023-10-10T03:42:15.748Z,100755.13
2023-10-10T03:45:06.224Z,100752.81
2023-10-10T03:47:56.647Z,100749.47
2023-10-10T03:50:47.105Z,100757.06
2023-10-10T03:53:37.601Z,100772.34
2023-10-10T03:56:34.405Z,100768.84
2023-10-10T03:59:25.237Z,100771.59
2023-10-10T04:02:16.198Z,100766.59
2023-10-10T04:05:23.785Z,100758.19
2023-10-10T04:08:16.604Z,100760.16
2023-10-10T04:11:07.067Z,100773.00
2023-10-10T04:13:57.552Z,100750.22
2023-10-10T04:16:47.935Z,100764.50
2023-10-10T04:19:38.293Z,100759.66
2023-10-10T04:22:28.665Z,100774.78
2023-10-10T04:25:19.121Z,100773.06
2023-10-10T04:28:09.433Z,100779.19
2023-10-10T04:31:00.014Z,100788.59
2023-10-10T04:33:50.095Z,100773.47
2023-10-10T04:36:40.517Z,100792.06
2023-10-10T04:39:30.896Z,100792.97
2023-10-10T04:42:21.300Z,100785.56
2023-10-10T04:45:11.614Z,100773.72
2023-10-10T04:48:02.114Z,100801.56
2023-10-10T04:50:52.565Z,100803.28
2023-10-10T04:53:43.143Z,100791.59
2023-10-10T04:56:33.650Z,100789.94
2023-10-10T04:59:24.126Z,100808.66
2023-10-10T05:02:14.415Z,100830.44
2023-10-10T05:05:04.914Z,100807.72
2023-10-10T05:07:55.324Z,100807.03
2023-10-10T05:10:45.776Z,100814.19
2023-10-10T05:13:36.123Z,100799.97
2023-10-10T05:16:26.607Z,100833.78
2023-10-10T05:19:16.773Z,100829.50
2023-10-10T05:22:07.236Z,100836.84
2023-10-10T05:24:44.604Z,100841.03
2023-10-10T05:27:16.493Z,100834.31
2023-10-10T05:29:51.340Z,100841.69
2023-10-10T05:32:24.469Z,100822.44
2023-10-10T05:34:58.557Z,100842.56
2023-10-10T05:37:32.986Z,100844.13
2023-10-10T05:40:08.322Z,100855.16
2023-10-10T05:42:40.838Z,100848.19
2023-10-10T05:45:15.202Z,100854.16
2023-10-10T05:47:47.148Z,100832.22
2023-10-10T05:50:20.096Z,100834.28
2023-10-10T05:52:53.136Z,100831.63
2023-10-10T05:55:24.939Z,100842.97
2023-10-10T05:57:58.725Z,100845.28
2023-10-10T06:00:37.861Z,100852.00
2023-10-10T06:03:11.566Z,100859.28
2023-10-10T06:05:47.312Z,100856.44
2023-10-10T06:08:19.397Z,100857.78
2023-10-10T06:10:51.212Z,100875.28
2023-10-10T06:13:23.933Z,100856.41
2023-10-10T06:15:55.824Z,100853.72
2023-10-10T06:18:27.714Z,100861.78
2023-10-10T06:23:38.872Z,100863.69
2023-10-10T06:26:11.180Z,100878.63
2023-10-10T06:28:49.553Z,100868.66
2023-10-10T06:31:22.318Z,100871.91
2023-10-10T06:33:59.314Z,100835.19
2023-10-10T06:36:34.007Z,100877.84
2023-10-10T06:39:06.250Z,100889.25
2023-10-10T06:41:40.596Z,100868.31
2023-10-10T06:44:15.448Z,100883.47
2023-10-10T06:46:50.746Z,100885.94
2023-10-10T06:49:23.769Z,100891.22
2023-10-10T06:51:56.843Z,100862.47
2023-10-10T06:54:35.899Z,100899.00
2023-10-10T06:57:10.479Z,100912.13
2023-10-10T06:59:42.370Z,100893.09
2023-10-10T07:02:20.438Z,100916.44
2023-10-10T07:04:55.101Z,100899.03
2023-10-10T07:07:27.868Z,100900.22
2023-10-10T07:10:00.240Z,100871.25
2023-10-10T07:12:33.210Z,100900.56
2023-10-10T07:15:07.994Z,100890.38
2023-10-10T07:17:40.610Z,100906.22
2023-10-10T07:20:12.515Z,100877.88
2023-10-10T07:22:46.167Z,100918.63
2023-10-10T07:25:33.638Z,100915.72
2023-10-10T07:28:06.583Z,100911.88
2023-10-10T07:30:44.103Z,100908.88
2023-10-10T07:33:15.883Z,100916.06
2023-10-10T07:35:54.969Z,100915.81
2023-10-10T07:38:30.413Z,100912.97
2023-10-10T07:41:06.215Z,100908.91
2023-10-10T07:43:39.352Z,100911.47
2023-10-10T07:46:23.984Z,100882.56
2023-10-10T07:48:55.825Z,100916.44
2023-10-10T07:51:30.234Z,100898.44
2023-10-10T07:54:14.368Z,100884.53
2023-10-10T07:56:46.989Z,100912.09
2023-10-10T07:59:19.012Z,100920.34
2023-10-10T08:01:55.345Z,100913.13
2023-10-10T08:04:27.185Z,100877.25
2023-10-10T08:06:58.957Z,100904.47
2023-10-10T08:09:31.317Z,100920.59
2023-10-10T08:12:06.243Z,100897.09
2023-10-10T08:14:41.105Z,100911.75
2023-10-10T08:17:27.557Z,100913.47
2023-10-10T08:20:19.406Z,100916.00
2023-10-10T08:22:51.153Z,100913.53
2023-10-10T08:25:24.482Z,100915.72
2023-10-10T08:27:57.205Z,100893.09
2023-10-10T08:30:29.076Z,100889.41
2023-10-10T08:33:01.685Z,100896.97
2023-10-10T08:35:40.559Z,100895.38
2023-10-10T08:38:14.735Z,100898.63
2023-10-10T08:40:59.493Z,100882.16
2023-10-10T08:43:33.101Z,100875.03
2023-10-10T08:46:05.795Z,100882.91
2023-10-10T08:48:38.788Z,100895.06
2023-10-10T08:51:10.752Z,100886.09
2023-10-10T08:53:42.578Z,100875.41
2023-10-10T08:56:16.588Z,100878.97
2023-10-10T08:58:48.430Z,100833.22
2023-10-10T09:01:20.353Z,100859.41
2023-10-10T09:03:52.225Z,100882.72
2023-10-10T09:06:24.031Z,100887.81
2023-10-10T09:08:57.066Z,100849.53
2023-10-10T09:11:31.937Z,100903.38
2023-10-10T09:14:11.338Z,100865.75
2023-10-10T09:16:43.385Z,100881.38
2023-10-10T09:19:16.180Z,100852.31
2023-10-10T09:21:57.677Z,100869.38
2023-10-10T09:24:38.913Z,100895.50
2023-10-10T09:27:29.750Z,100874.91
2023-10-10T09:30:10.068Z,100879.19
2023-10-10T09:32:44.197Z,100859.88
2023-10-10T09:35:16.123Z,100872.47
2023-10-10T09:37:48.345Z,100891.53
2023-10-10T09:40:20.854Z,100899.38
2023-10-10T09:43:02.701Z,100867.19
2023-10-10T09:45:54.432Z,100872.47
2023-10-10T09:48:55.613Z,100898.91
2023-10-10T09:51:48.444Z,100860.78
2023-10-10T09:54:26.859Z,100891.69
2023-10-10T09:57:00.322Z,100903.63
2023-10-10T09:59:33.912Z,100896.53
2023-10-10T10:02:06.644Z,100875.38
2023-10-10T10:04:43.477Z,100873.56
2023-10-10T10:07:29.026Z,100884.50
2023-10-10T10:10:49.968Z,100894.31
2023-10-10T10:13:57.889Z,100882.53
2023-10-10T10:16:47.929Z,100880.88
2023-10-10T10:19:24.138Z,100857.84
2023-10-10T10:22:09.720Z,100880.38
2023-10-10T10:24:47.375Z,100878.03
2023-10-10T10:27:36.661Z,100869.81
2023-10-10T10:30:20.836Z,100847.97
2023-10-10T10:32:56.989Z,100866.81
2023-10-10T10:35:58.508Z,100862.84
2023-10-10T10:38:33.205Z,100862.44
2023-10-10T10:41:18.535Z,100852.72
2023-10-10T10:43:53.335Z,100860.38
2023-10-10T10:46:41.192Z,100855.56
2023-10-10T10:49:16.609Z,100839.31
2023-10-10T10:51:48.894Z,100857.75
2023-10-10T10:54:38.742Z,100860.25
2023-10-10T10:57:43.126Z,100837.06
2023-10-10T11:00:41.911Z,100857.88
2023-10-10T11:03:14.736Z,100853.59
2023-10-10T11:05:46.748Z,100830.06
2023-10-10T11:08:50.620Z,100856.50
2023-10-10T11:11:37.160Z,100833.81
2023-10-10T11:14:20.561Z,100855.97
2023-10-10T11:16:58.353Z,100811.22
2023-10-10T11:19:31.523Z,100843.81
2023-10-10T11:22:06.891Z,100806.34
2023-10-10T11:24:38.920Z,100852.31
2023-10-10T11:27:13.272Z,100839.25
2023-10-10T11:29:51.599Z,100842.16
2023-10-10T11:32:30.663Z,100842.38
2023-10-10T11:35:17.602Z,100835.06
2023-10-10T11:37:50.367Z,100828.88
2023-10-10T11:40:42.404Z,100811.72
2023-10-10T11:43:14.474Z,100809.09
2023-10-10T11:45:52.967Z,100821.50
2023-10-10T11:48:27.771Z,100829.63
2023-10-10T11:51:00.903Z,100828.69
2023-10-10T11:53:38.181Z,100833.28
2023-10-10T11:56:15.220Z,100824.66
2023-10-10T11:58:50.875Z,100809.56
2023-10-10T12:01:42.667Z,100825.47
2023-10-10T12:04:40.345Z,100821.16
2023-10-10T12:07:15.279Z,100823.78
2023-10-10T12:09:48.923Z,100822.56
2023-10-10T12:12:22.873Z,100812.88
2023-10-10T12:14:55.092Z,100817.53
2023-10-10T12:17:29.600Z,100832.03
2023-10-10T12:20:01.440Z,100813.81
2023-10-10T12:22:33.247Z,100810.88
2023-10-10T12:25:06.292Z,100811.94
2023-10-10T12:27:38.064Z,100788.66
2023-10-10T12:30:14.387Z,100792.81
2023-10-10T12:32:50.866Z,100783.56
2023-10-10T12:35:25.750Z,100798.19
2023-10-10T12:38:02.638Z,100797.75
2023-10-10T12:40:34.927Z,100763.81
2023-10-10T12:43:09.226Z,100774.69
2023-10-10T12:45:41.009Z,100780.47
2023-10-10T12:48:21.814Z,100796.59
2023-10-10T12:50:53.988Z,100801.69
2023-10-10T12:53:32.048Z,100810.88
2023-10-10T12:56:03.877Z,100792.88
2023-10-10T12:58:35.667Z,100801.53
2023-10-10T13:01:07.444Z,100789.53
2023-10-10T13:03:39.826Z,100805.03
2023-10-10T13:06:11.747Z,100769.44
2023-10-10T13:09:04.386Z,100794.81
2023-10-10T13:11:45.529Z,100803.84
2023-10-10T13:14:20.585Z,100775.16
2023-10-10T13:16:52.863Z,100790.53
2023-10-10T13:19:24.820Z,100748.91
2023-10-10T13:21:56.620Z,100772.47
2023-10-10T13:24:28.420Z,100781.59
2023-10-10T13:27:00.239Z,100793.25
2023-10-10T13:29:32.088Z,100772.97
2023-10-10T13:32:06.158Z,100774.44
2023-10-10T13:34:39.111Z,100774.75
2023-10-10T13:37:10.976Z,100747.63
2023-10-10T13:39:49.242Z,100741.78
2023-10-10T13:42:22.095Z,100748.41
2023-10-10T13:45:02.702Z,100757.06
2023-10-10T13:47:34.602Z,100752.06
2023-10-10T13:50:26.829Z,100760.38
2023-10-10T13:53:00.801Z,100745.69
2023-10-10T13:55:35.566Z,100728.78
2023-10-10T13:58:13.521Z,100733.34
2023-10-10T14:00:57.120Z,100736.50
2023-10-10T14:03:36.853Z,100738.06
2023-10-10T14:06:13.799Z,100741.53
2023-10-10T14:08:45.777Z,100743.03
2023-10-10T14:11:25.029Z,100749.53
2023-10-10T14:13:57.088Z,100744.34
2023-10-10T14:16:31.444Z,100736.97
2023-10-10T14:19:03.288Z,100700.47
2023-10-10T14:21:39.996Z,100703.09
2023-10-10T14:24:15.366Z,100674.09
2023-10-10T14:26:50.210Z,100691.28
2023-10-10T14:29:22.251Z,100693.47
2023-10-10T14:32:00.245Z,100707.78
2023-10-10T14:34:36.488Z,100698.75
2023-10-10T14:37:20.464Z,100709.56
2023-10-10T14:40:01.093Z,100713.53
2023-10-10T14:42:32.856Z,100729.03
2023-10-10T14:45:08.020Z,100729.44
2023-10-10T14:47:44.181Z,100706.25
2023-10-10T14:50:16.010Z,100732.78
2023-10-10T14:52:51.105Z,100733.81
2023-10-10T14:55:25.808Z,100702.38
2023-10-10T14:57:57.747Z,100734.44
2023-10-10T15:00:30.200Z,100720.47
2023-10-10T15:03:02.607Z,100730.97
2023-10-10T15:05:34.504Z,100743.97
2023-10-10T15:08:06.562Z,100741.06
2023-10-10T15:10:42.308Z,100744.38
2023-10-10T15:13:16.810Z,100738.88
2023-10-10T15:15:49.659Z,100747.16
2023-10-10T15:18:21.567Z,100738.84
2023-10-10T15:20:53.980Z,100741.09
2023-10-10T15:23:26.498Z,100744.06
2023-10-10T15:26:13.084Z,100754.31
2023-10-10T15:28:45.631Z,100767.09
2023-10-10T15:31:17.428Z,100770.81
2023-10-10T15:33:49.252Z,100755.47
2023-10-10T15:36:21.124Z,100758.91
2023-10-10T15:38:52.887Z,100766.44
2023-10-10T15:41:26.680Z,100749.97
2023-10-10T15:44:04.092Z,100760.44
2023-10-10T15:46:38.857Z,100758.03
2023-10-10T15:49:33.225Z,100763.69
2023-10-10T15:52:06.281Z,100742.69
2023-10-10T15:54:38.512Z,100765.47
2023-10-10T15:57:10.972Z,100736.84
2023-10-10T15:59:43.775Z,100738.88
2023-10-10T16:02:15.916Z,100763.59
2023-10-10T16:04:47.792Z,100771.75
2023-10-10T16:07:19.660Z,100707.06
2023-10-10T16:09:53.757Z,100766.44
2023-10-10T16:12:25.586Z,100737.09
2023-10-10T16:14:57.447Z,100772.75
2023-10-10T16:17:30.154Z,100745.66
2023-10-10T16:20:06.684Z,100759.84
2023-10-10T16:22:40.992Z,100753.88
2023-10-10T16:25:14.806Z,100755.47
2023-10-10T16:27:46.563Z,100732.47
2023-10-10T16:30:18.484Z,100727.59
2023-10-10T16:32:51.005Z,100768.59
2023-10-10T16:35:22.969Z,100746.81
2023-10-10T16:37:55.123Z,100767.72
2023-10-10T16:40:30.879Z,100753.50
2023-10-10T16:43:03.583Z,100770.41
2023-10-10T16:45:35.382Z,100735.66
2023-10-10T16:48:10.096Z,100784.25
2023-10-10T16:50:43.301Z,100713.22
2023-10-10T16:53:15.184Z,100781.97
2023-10-10T16:55:46.968Z,100770.28
2023-10-10T16:58:18.976Z,100765.53
2023-10-10T17:00:51.188Z,100760.63
2023-10-10T17:03:24.010Z,100776.06
2023-10-10T17:05:58.648Z,100752.44
2023-10-10T17:08:33.534Z,100763.66
2023-10-10T17:11:15.985Z,100767.16
2023-10-10T17:13:48.412Z,100770.66
2023-10-10T17:16:30.295Z,100775.34
2023-10-10T17:19:16.333Z,100753.44
2023-10-10T17:21:48.984Z,100766.97
2023-10-10T17:24:21.385Z,100774.25
2023-10-10T17:26:55.375Z,100755.00
2023-10-10T17:29:28.071Z,100763.28
2023-10-10T17:32:01.240Z,100774.06
2023-10-10T17:34:34.897Z,100754.25
2023-10-10T17:37:10.194Z,100773.63
2023-10-10T17:39:41.994Z,100781.41
2023-10-10T17:42:13.751Z,100777.97
2023-10-10T17:44:46.050Z,100775.09
2023-10-10T17:47:17.888Z,100799.16
2023-10-10T17:49:49.694Z,100782.31
2023-10-10T17:52:22.800Z,100782.44
2023-10-10T17:54:54.787Z,100784.53
2023-10-10T17:57:26.572Z,100763.56
2023-10-10T17:59:58.507Z,100782.84
2023-10-10T18:02:33.546Z,100772.81
2023-10-10T18:05:06.934Z,100754.81
2023-10-10T18:07:39.718Z,100747.44
2023-10-10T18:10:12.805Z,100741.00
2023-10-10T18:12:44.978Z,100761.97
2023-10-10T18:15:20.279Z,100757.56
2023-10-10T18:17:57.031Z,100721.66
2023-10-10T18:20:31.169Z,100739.25
2023-10-10T18:23:03.300Z,100726.22
2023-10-10T18:25:39.269Z,100745.66
2023-10-10T18:28:12.364Z,100722.66
2023-10-10T18:30:46.927Z,100789.22
2023-10-10T18:33:18.820Z,100794.34
2023-10-10T18:35:50.742Z,100785.38
2023-10-10T18:38:22.560Z,100782.69
2023-10-10T18:40:56.118Z,100765.75
2023-10-10T18:43:27.979Z,100793.88
2023-10-10T18:46:01.590Z,100790.66
2023-10-10T18:48:38.420Z,100781.25
2023-10-10T18:51:14.762Z,100788.63
2023-10-10T18:53:48.682Z,100776.00
2023-10-10T18:56:20.550Z,100772.75
2023-10-10T18:58:52.383Z,100753.34
2023-10-10T19:01:24.368Z,100736.44
2023-10-10T19:03:56.223Z,100757.63
2023-10-10T19:06:28.094Z,100756.09
2023-10-10T19:09:01.636Z,100757.47
2023-10-10T19:11:33.588Z,100740.44
2023-10-10T19:14:05.431Z,100743.88
2023-10-10T19:16:40.363Z,100770.69
2023-10-10T19:19:12.157Z,100772.59
2023-10-10T19:21:46.498Z,100781.94
2023-10-10T19:24:21.626Z,100751.75
2023-10-10T19:26:54.535Z,100749.72
2023-10-10T19:29:30.153Z,100757.47
2023-10-10T19:32:02.011Z,100753.56
2023-10-10T19:34:34.491Z,100755.63
2023-10-10T19:37:06.293Z,100763.31
2023-10-10T19:39:38.055Z,100725.38
2023-10-10T19:42:09.852Z,100746.28
2023-10-10T19:44:41.682Z,100730.00
2023-10-10T19:47:13.487Z,100745.06
2023-10-10T19:49:45.299Z,100733.38
2023-10-10T19:52:17.072Z,100754.47
2023-10-10T19:54:48.857Z,100741.59
2023-10-10T19:57:20.642Z,100757.13
2023-10-10T19:59:52.433Z,100761.41
2023-10-10T20:02:24.375Z,100754.75
2023-10-10T20:04:56.988Z,100751.44
2023-10-10T20:07:28.983Z,100748.97
2023-10-10T20:10:00.741Z,100755.00
2023-10-10T20:12:32.514Z,100773.78
2023-10-10T20:15:04.730Z,100761.59
2023-10-10T20:17:37.723Z,100741.59
2023-10-10T20:20:10.824Z,100765.56
2023-10-10T20:22:45.682Z,100728.56
2023-10-10T20:25:20.264Z,100728.50
2023-10-10T20:27:52.133Z,100751.28
2023-10-10T20:30:27.652Z,100738.63
2023-10-10T20:33:02.700Z,100736.69
2023-10-10T20:35:36.293Z,100725.38
2023-10-10T20:38:08.125Z,100720.97
2023-10-10T20:40:44.540Z,100729.56
2023-10-10T20:43:16.541Z,100698.34
2023-10-10T20:45:48.394Z,100696.59
2023-10-10T20:48:23.355Z,100731.38
2023-10-10T20:50:55.379Z,100715.72
2023-10-10T20:53:29.339Z,100703.25
2023-10-10T20:56:03.350Z,100684.91
2023-10-10T20:58:35.989Z,100725.03
2023-10-10T21:01:13.326Z,100703.25
2023-10-10T21:03:45.410Z,100698.19
2023-10-10T21:06:17.233Z,100724.19
2023-10-10T21:08:50.696Z,100713.41
2023-10-10T21:11:23.136Z,100685.44
2023-10-10T21:13:54.953Z,100704.41
2023-10-10T21:16:26.850Z,100709.00
2023-10-10T21:18:59.089Z,100692.03
2023-10-10T21:21:30.943Z,100721.06
2023-10-10T21:24:02.745Z,100711.34
2023-10-10T21:26:34.678Z,100697.69
2023-10-10T21:29:06.449Z,100688.81
2023-10-10T21:31:38.205Z,100674.22
2023-10-10T21:34:11.799Z,100680.75
2023-10-10T21:36:43.606Z,100705.50
2023-10-10T21:39:19.964Z,100699.28
2023-10-10T21:41:51.818Z,100691.75
2023-10-10T21:44:23.644Z,100688.78
2023-10-10T21:46:55.431Z,100704.81
2023-10-10T21:49:30.183Z,100704.66
2023-10-10T21:52:02.419Z,100679.06
2023-10-10T21:54:34.215Z,100680.47
2023-10-10T21:57:05.996Z,100696.22
2023-10-10T21:59:39.123Z,100669.72
2023-10-10T22:02:11.096Z,100696.81
2023-10-10T22:04:44.274Z,100672.00
2023-10-10T22:15:38.785Z,100662.53
2023-10-10T22:18:13.248Z,100666.53
2023-10-10T22:20:45.478Z,100657.03
2023-10-10T22:23:17.389Z,100666.53
2023-10-10T22:25:49.546Z,100670.69
2023-10-10T22:28:21.479Z,100670.50
2023-10-10T22:30:53.438Z,100673.69
2023-10-10T22:33:25.395Z,100674.00
2023-10-10T22:35:57.557Z,100653.50
2023-10-10T22:38:29.503Z,100661.75
2023-10-10T22:41:01.409Z,100662.47
2023-10-10T22:43:33.323Z,100656.03
2023-10-10T22:46:05.302Z,100647.22
2023-10-10T22:48:37.806Z,100638.41
2023-10-10T22:51:11.186Z,100655.50
2023-10-10T22:53:43.716Z,100653.41
2023-10-10T22:56:19.588Z,100638.69
2023-10-10T22:58:51.557Z,100646.50
2023-10-10T23:01:23.762Z,100655.56
2023-10-10T23:03:56.791Z,100628.88
2023-10-10T23:06:29.954Z,100649.13
2023-10-10T23:09:08.963Z,100666.75
2023-10-10T23:11:41.064Z,100661.06
2023-10-10T23:14:14.279Z,100658.41
2023-10-10T23:16:46.371Z,100669.78
2023-10-10T23:19:19.042Z,100642.75
2023-10-10T23:21:50.956Z,100636.34
2023-10-10T23:24:22.862Z,100633.63
2023-10-10T23:26:55.956Z,100655.91
2023-10-10T23:29:27.912Z,100637.69
2023-10-10T23:32:00.587Z,100624.31
2023-10-10T23:34:32.600Z,100636.81
2023-10-10T23:37:05.123Z,100645.84
2023-10-10T23:39:37.059Z,100639.34
2023-10-10T23:42:10.810Z,100633.91
2023-10-10T23:44:42.795Z,100596.19
2023-10-10T23:47:14.738Z,100633.97
2023-10-10T23:49:48.480Z,100639.34
2023-10-10T23:52:22.539Z,100612.38
2023-10-10T23:54:54.463Z,100627.06
2023-10-10T23:57:26.391Z,100628.66
2023-10-10T23:59:58.454Z,100624.94
